createdAt,value
2022-12-28T00:04:39.361Z,5.5
2022-12-28T00:09:38.456Z,7
2022-12-28T00:14:37.481Z,8.4
2022-12-28T00:19:36.541Z,6.5
2022-12-28T00:24:35.623Z,4.3
2022-12-28T00:29:34.719Z,2.9
2022-12-28T00:34:33.753Z,5.9
2022-12-28T00:39:32.783Z,5.8
2022-12-28T00:44:31.835Z,4.2
2022-12-28T00:49:30.925Z,3.5
2022-12-28T00:54:30.076Z,3.4
2022-12-28T00:59:29.023Z,4.9
2022-12-28T01:04:28.068Z,3.5
2022-12-28T01:09:27.108Z,3.8
2022-12-28T01:14:26.223Z,4.7
2022-12-28T01:19:25.282Z,5.4
2022-12-28T01:24:24.342Z,1.7
2022-12-28T01:29:23.421Z,2.8
2022-12-28T01:34:22.501Z,2.1
2022-12-28T01:39:21.590Z,2.4
2022-12-28T01:44:20.650Z,2
2022-12-28T01:49:19.730Z,1.5
2022-12-28T01:54:18.809Z,1.5
2022-12-28T01:59:17.868Z,2.3
2022-12-28T02:04:16.922Z,1.1
2022-12-28T02:09:16.025Z,1.7
2022-12-28T02:14:15.087Z,1.4
2022-12-28T02:19:14.117Z,1.3
2022-12-28T02:24:13.200Z,2.4
2022-12-28T02:29:12.238Z,1.9
2022-12-28T02:34:11.344Z,1
2022-12-28T02:39:10.385Z,1.3
2022-12-28T02:44:09.459Z,1.4
2022-12-28T02:49:08.579Z,1.7
2022-12-28T02:54:07.561Z,0.8
2022-12-28T02:59:06.669Z,1.4
2022-12-28T03:04:05.709Z,1.4
2022-12-28T03:09:04.747Z,0.9
2022-12-28T03:14:03.905Z,1.4
2022-12-28T03:19:02.946Z,1.4
2022-12-28T03:24:02.120Z,2
2022-12-28T03:29:01.096Z,11.5
2022-12-28T03:34:00.191Z,8.2
2022-12-28T03:38:59.272Z,6.4
2022-12-28T03:43:58.329Z,3.2
2022-12-28T03:48:57.384Z,2.8
2022-12-28T03:53:56.490Z,1.9
2022-12-28T03:58:55.510Z,2
2022-12-28T04:03:54.645Z,2.6
2022-12-28T04:08:53.659Z,3.8
2022-12-28T04:13:52.717Z,4.1
2022-12-28T04:18:51.764Z,2.5
2022-12-28T04:23:50.811Z,1.8
2022-12-28T04:28:49.949Z,3.7
2022-12-28T04:33:48.920Z,2.8
2022-12-28T04:38:47.978Z,2.6
2022-12-28T04:43:46.999Z,2.9
2022-12-28T04:48:46.015Z,4.2
2022-12-28T04:53:45.087Z,3.1
2022-12-28T04:58:44.121Z,2.4
2022-12-28T05:03:43.148Z,3
2022-12-28T05:08:42.213Z,3.8
2022-12-28T05:13:41.209Z,5.1
2022-12-28T05:18:40.236Z,4.7
2022-12-28T05:23:39.261Z,4.4
2022-12-28T05:28:38.289Z,4.5
2022-12-28T05:33:37.327Z,3.8
2022-12-28T05:38:36.382Z,5.9
2022-12-28T05:43:35.368Z,6.4
2022-12-28T05:48:34.446Z,5.7
2022-12-28T05:53:33.385Z,6.1
2022-12-28T05:58:32.430Z,6.1
2022-12-28T06:03:31.593Z,7.3
2022-12-28T06:08:30.529Z,10.3
2022-12-28T06:13:29.592Z,9.5
2022-12-28T06:18:28.661Z,7.5
2022-12-28T06:23:27.664Z,6.9
2022-12-28T06:28:26.699Z,5.9
2022-12-28T06:33:25.722Z,4.8
2022-12-28T06:38:24.808Z,5.5
2022-12-28T06:43:23.790Z,7.2
2022-12-28T06:48:22.828Z,10
2022-12-28T06:53:21.795Z,13.8
2022-12-28T06:58:20.802Z,13.8
2022-12-28T07:03:19.852Z,12.9
2022-12-28T07:08:18.822Z,17.2
2022-12-28T07:13:20.810Z,18.7
2022-12-28T07:18:16.947Z,19.5
2022-12-28T07:23:15.934Z,21.6
2022-12-28T07:28:14.981Z,20.2
2022-12-28T07:33:14.080Z,25.7
2022-12-28T07:38:16.609Z,27.6
2022-12-28T07:43:12.120Z,23.6
2022-12-28T07:48:11.172Z,29.1
2022-12-28T07:53:10.190Z,28.7
2022-12-28T07:58:09.258Z,25.1
2022-12-28T08:03:08.308Z,28.1
2022-12-28T08:08:07.309Z,28.3
2022-12-28T08:13:06.386Z,27.7
2022-12-28T08:18:05.469Z,22.5
2022-12-28T08:23:04.553Z,21
2022-12-28T08:28:03.656Z,19.1
2022-12-28T08:33:02.755Z,13.1
2022-12-28T08:38:01.875Z,10.9
2022-12-28T08:43:00.932Z,12.3
2022-12-28T08:48:00.009Z,22.9
2022-12-28T08:52:59.101Z,10.3
2022-12-28T08:57:58.134Z,9.4
2022-12-28T09:02:57.380Z,11.7
2022-12-28T09:07:59.749Z,7.7
2022-12-28T09:12:55.488Z,5.1
2022-12-28T09:17:54.583Z,4
2022-12-28T09:22:53.751Z,2.5
2022-12-28T09:27:58.982Z,2
2022-12-28T09:32:52.005Z,2.1
2022-12-28T09:37:51.198Z,3.9
2022-12-28T09:42:50.380Z,4.5
2022-12-28T09:47:49.483Z,5.3
2022-12-28T09:52:49.968Z,5.3
2022-12-28T09:57:47.777Z,4.8
2022-12-28T10:02:47.042Z,4.2
2022-12-28T10:07:46.078Z,5.5
2022-12-28T10:12:45.192Z,5.4
2022-12-28T10:17:44.405Z,4.1
2022-12-28T10:22:49.689Z,3.1
2022-12-28T10:27:42.663Z,2.7
2022-12-28T10:32:41.823Z,3.4
2022-12-28T10:37:40.998Z,2.6
2022-12-28T10:42:40.251Z,2.5
2022-12-28T10:47:39.367Z,3.8
2022-12-28T10:52:38.676Z,4.5
2022-12-28T10:57:38.174Z,3
2022-12-28T11:02:37.050Z,2.6
2022-12-28T11:07:36.072Z,4.1
2022-12-28T11:12:35.231Z,3.8
2022-12-28T11:17:34.460Z,2
2022-12-28T11:22:33.529Z,2
2022-12-28T11:27:32.736Z,2
2022-12-28T11:32:31.904Z,3.1
2022-12-28T11:37:31.080Z,13.7
2022-12-28T11:42:40.336Z,16.2
2022-12-28T11:47:29.527Z,5.4
2022-12-28T11:52:28.650Z,2.2
2022-12-28T11:57:27.880Z,8.4
2022-12-28T12:02:27.104Z,2.1
2022-12-28T12:07:31.112Z,1.9
2022-12-28T12:13:53.215Z,1.1
2022-12-28T12:17:24.572Z,2.5
2022-12-28T12:22:23.757Z,1.5
2022-12-28T12:27:22.994Z,2.5
2022-12-28T12:32:22.272Z,3.4
2022-12-28T12:37:21.409Z,2.6
2022-12-28T12:42:20.595Z,3.1
2022-12-28T12:47:20.046Z,2.7
2022-12-28T12:52:18.988Z,2.2
2022-12-28T12:57:18.195Z,2.6
2022-12-28T13:02:17.579Z,2.9
2022-12-28T13:07:16.621Z,2.2
2022-12-28T13:12:15.758Z,17.8
2022-12-28T13:17:15.003Z,7.4
2022-12-28T13:22:14.195Z,2.9
2022-12-28T13:27:13.354Z,3.3
2022-12-28T13:32:12.540Z,3.6
2022-12-28T13:37:11.765Z,2.2
2022-12-28T13:42:10.949Z,18.5
2022-12-28T13:47:10.198Z,3.8
2022-12-28T13:52:09.335Z,3.5
2022-12-28T13:57:44.504Z,6.5
2022-12-28T14:02:07.921Z,4.2
2022-12-28T14:07:06.912Z,3.2
2022-12-28T14:12:06.139Z,8.2
2022-12-28T14:17:05.283Z,3.8
2022-12-28T14:22:07.866Z,7.4
2022-12-28T14:27:03.703Z,10.4
2022-12-28T14:32:02.929Z,15.7
2022-12-28T14:37:02.099Z,8.6
2022-12-28T14:42:01.268Z,5.8
2022-12-28T14:47:00.464Z,6.7
2022-12-28T14:51:59.546Z,6.4
2022-12-28T14:54:16.373Z,6.4
2022-12-28T14:56:58.776Z,7.7
2022-12-28T15:01:57.972Z,7.3
2022-12-28T15:06:57.067Z,6.8
2022-12-28T15:11:56.137Z,5.4
2022-12-28T15:16:55.310Z,8.7
2022-12-28T15:21:54.452Z,7.7
2022-12-28T15:26:53.641Z,5.3
2022-12-28T15:31:52.833Z,6.3
2022-12-28T15:36:51.878Z,19.9
2022-12-28T15:41:51.031Z,37.9
2022-12-28T15:46:50.266Z,36.2
2022-12-28T15:51:49.302Z,20.7
2022-12-28T15:56:48.439Z,17.1
2022-12-28T16:01:47.815Z,9.2
2022-12-28T16:06:46.627Z,8.7
2022-12-28T16:11:50.106Z,5.5
2022-12-28T16:16:44.952Z,13.8
2022-12-28T16:21:43.915Z,17.5
2022-12-28T16:26:42.998Z,24.9
2022-12-28T16:31:42.256Z,15.3
2022-12-28T16:36:41.300Z,13
2022-12-28T16:41:40.329Z,10.7
2022-12-28T16:46:39.479Z,6.4
2022-12-28T16:51:38.584Z,5.7
2022-12-28T16:56:37.672Z,5.7
2022-12-28T17:01:36.899Z,12.9
2022-12-28T17:06:35.885Z,6.9
2022-12-28T17:11:35.030Z,7.7
2022-12-28T17:16:34.176Z,5.4
2022-12-28T17:21:33.284Z,13.8
2022-12-28T17:26:32.363Z,10.6
2022-12-28T17:31:31.496Z,15.5
2022-12-28T17:36:30.527Z,9.3
2022-12-28T17:41:29.639Z,9.1
2022-12-28T17:46:28.893Z,12.6
2022-12-28T17:51:27.819Z,9.7
2022-12-28T17:56:26.943Z,11.7
2022-12-28T18:01:26.189Z,10.3
2022-12-28T18:06:25.144Z,7.7
2022-12-28T18:11:24.184Z,13.4
2022-12-28T18:16:23.262Z,13.4
2022-12-28T18:21:22.328Z,12
2022-12-28T18:26:21.361Z,14.5
2022-12-28T18:31:20.461Z,44.1
2022-12-28T18:36:19.470Z,44.8
2022-12-28T18:41:18.550Z,11.9
2022-12-28T18:46:17.720Z,7.8
2022-12-28T18:51:16.627Z,6.8
2022-12-28T18:56:15.764Z,8.2
2022-12-28T19:01:39.757Z,31
2022-12-28T19:06:13.844Z,11.8
2022-12-28T19:11:12.900Z,10.9
2022-12-28T19:16:12.065Z,7.7
2022-12-28T19:21:11.049Z,6.2
2022-12-28T19:26:10.122Z,6.7
2022-12-28T19:31:09.335Z,9.6
2022-12-28T19:36:08.258Z,9
2022-12-28T19:41:07.332Z,9.2
2022-12-28T19:46:06.492Z,16.6
2022-12-28T19:51:05.529Z,16.5
2022-12-28T19:56:04.604Z,11.2
2022-12-28T20:01:03.718Z,9
2022-12-28T20:06:02.792Z,10.5
2022-12-28T20:11:01.867Z,9.2
2022-12-28T20:16:01.092Z,16.2
2022-12-28T20:21:18.457Z,33.8
2022-12-28T20:25:59.123Z,44.9
2022-12-28T20:30:58.262Z,62.8
2022-12-28T20:35:57.302Z,11.1
2022-12-28T20:40:56.338Z,10.9
2022-12-28T20:45:55.452Z,7.5
2022-12-28T20:50:54.519Z,6.7
2022-12-28T20:55:53.627Z,8.8
2022-12-28T21:00:52.771Z,6.7
2022-12-28T21:05:51.796Z,7.1
2022-12-28T21:10:50.869Z,7.6
2022-12-28T21:15:50.004Z,6.1
2022-12-28T21:20:49.030Z,4.9
2022-12-28T21:25:48.117Z,6.1
2022-12-28T21:30:47.207Z,6.6
2022-12-28T21:35:46.311Z,6.5
2022-12-28T21:40:45.397Z,8
2022-12-28T21:45:44.502Z,7.3
2022-12-28T21:50:43.609Z,8.8
2022-12-28T21:55:42.639Z,7
2022-12-28T22:00:41.725Z,6.5
2022-12-28T22:05:40.769Z,5.7
2022-12-28T22:10:39.866Z,6.6
2022-12-28T22:15:38.923Z,5.7
2022-12-28T22:20:38.025Z,4.3
2022-12-28T22:25:37.076Z,4.2
2022-12-28T22:30:36.197Z,5.3
2022-12-28T22:35:35.247Z,4.6
2022-12-28T22:40:34.321Z,4
2022-12-28T22:45:33.432Z,5
2022-12-28T22:50:34.020Z,3.6
2022-12-28T22:55:31.516Z,3.8
2022-12-28T23:00:30.615Z,6.1
2022-12-28T23:05:29.682Z,5.5
2022-12-28T23:10:28.732Z,4
2022-12-28T23:15:27.871Z,3.8
2022-12-28T23:20:26.932Z,3.6
2022-12-28T23:25:26.025Z,3.6
2022-12-28T23:30:25.037Z,5.4
2022-12-28T23:35:24.135Z,4.5
2022-12-28T23:40:23.239Z,6.3
2022-12-28T23:45:22.303Z,4.8
2022-12-28T23:50:21.406Z,4.6
2022-12-28T23:55:20.434Z,3.9
